LTFE Airport Information

Runway Information
Runway 11 Length 9842 ft width 148 ft
Elevation 9 ft Threshold 0 ft Heading 107
Runway 29 Length 9842 ft Width 148 ft
Elevation 21 ft Threshold 0 ft Heading 287
Airport Frequencies
Type APP Name MENDERES A Frequency 119.5 MHZ
Type APP Name MENDERES A Frequency 119.775 MHZ
Type ATIS Name ATIS Frequency 128.5 MHZ
Type GND Name GND Frequency 121.95 MHZ
Type TWR Name TWR Frequency 120.5 MHZ
Airport Navaids
Type VOR-DME Name Milas Bodrum Frequency 116700 KHZ
Type NDB Name Milas Bodrum Frequency 389 KHZ
Type VOR-DME Name Kiyikislacik Frequency 113900 KHZ
Airport Weather Information & NOTAM
ADDS - METARS form results

(2049 UTC 23 April 2019)
Data provider http://aviationweather.gov/metar/data/
 
METAR text: LTFE 232020Z 09008KT CAVOK 15/09 Q1024 NOSIG RMK RWY10 06008KT
Conditions at: LTFE (BODRUM MILAS , TR) observed 2020 UTC 23 April 2019
Temperature: 15.0°C (59°F)
Dewpoint: 9.0°C (48°F) [RH = 67%]
Pressure (altimeter): 30.24 inches Hg (1024.0 mb)
Winds: from the E (90 degrees) at 9 MPH (8 knots; 4.1 m/s)
Visibility: 6 or more miles (10+ km)
Ceiling: ceiling and visibility are OK
Clouds: unknown
Weather: no significant weather observed at this time

METAR text: LTFE 231950Z 14006KT CAVOK 15/09 Q1025 NOSIG RMK RWY10 10005KT 040V140
Conditions at: LTFE (BODRUM MILAS , TR) observed 1950 UTC 23 April 2019
Temperature: 15.0°C (59°F)
Dewpoint: 9.0°C (48°F) [RH = 67%]
Pressure (altimeter): 30.27 inches Hg (1025.0 mb)
Winds: from the SE (140 degrees) at 7 MPH (6 knots; 3.1 m/s)
Visibility: 6 or more miles (10+ km)
Ceiling: ceiling and visibility are OK
Clouds: unknown
Weather: no significant weather observed at this time

Forecast for: LTFE (BODRUM MILAS , TR)
Text: TAF LTFE 231640Z 2318/2418 VRB02KT CAVOK
Forecast period: 1800 UTC 23 April 2019 to 0800 UTC 24 April 2019
Forecast type: FROM: standard forecast or significant change
Winds: variable direction winds at 2 MPH (2 knots; 1.0 m/s)
Visibility: 6 or more miles 10+ km)
Ceiling: unknown
Clouds: missing
Weather: NSW  (no significant weather)
Text: BECMG 2408/2411 26012KT
Forecast period: 0800 to 1800 UTC 24 April 2019
Forecast type: BECOMING: Conditions expected to become as follows by 1100 UTC 24 April 2019
Winds: from the W (260 degrees) at 14 MPH (12 knots; 6.2 m/s)
Visibility: 6 or more miles 10+ km)
Ceiling: unknown
Clouds: missing
Weather: NSW  (no significant weather)